sensor_id;sensor_type;location;lat;lon;timestamp;temperature;humidity
12229;DHT22;6177;52.402;9.800;2022-08-19T00:02:03;20.60;82.20
12229;DHT22;6177;52.402;9.800;2022-08-19T00:04:48;20.60;82.30
12229;DHT22;6177;52.402;9.800;2022-08-19T00:07:36;20.70;82.10
12229;DHT22;6177;52.402;9.800;2022-08-19T00:10:21;20.70;82.10
12229;DHT22;6177;52.402;9.800;2022-08-19T00:13:07;20.70;82.10
12229;DHT22;6177;52.402;9.800;2022-08-19T00:15:51;20.70;82.20
12229;DHT22;6177;52.402;9.800;2022-08-19T00:18:36;20.60;82.20
12229;DHT22;6177;52.402;9.800;2022-08-19T00:21:21;20.60;82.00
12229;DHT22;6177;52.402;9.800;2022-08-19T00:24:10;20.60;81.90
12229;DHT22;6177;52.402;9.800;2022-08-19T00:26:56;20.60;81.80
12229;DHT22;6177;52.402;9.800;2022-08-19T00:29:41;20.60;81.70
12229;DHT22;6177;52.402;9.800;2022-08-19T00:32:25;20.60;81.60
12229;DHT22;6177;52.402;9.800;2022-08-19T00:35:10;20.50;81.40
12229;DHT22;6177;52.402;9.800;2022-08-19T00:37:55;20.50;81.60
12229;DHT22;6177;52.402;9.800;2022-08-19T00:40:43;20.40;81.70
12229;DHT22;6177;52.402;9.800;2022-08-19T00:43:30;20.40;81.80
12229;DHT22;6177;52.402;9.800;2022-08-19T00:46:15;20.20;82.10
12229;DHT22;6177;52.402;9.800;2022-08-19T00:49:01;20.20;82.20
12229;DHT22;6177;52.402;9.800;2022-08-19T00:51:50;20.10;82.30
12229;DHT22;6177;52.402;9.800;2022-08-19T00:54:37;20.00;82.60
12229;DHT22;6177;52.402;9.800;2022-08-19T00:57:45;19.90;83.00
12229;DHT22;6177;52.402;9.800;2022-08-19T01:00:32;19.90;83.20
12229;DHT22;6177;52.402;9.800;2022-08-19T01:03:20;19.80;83.50
12229;DHT22;6177;52.402;9.800;2022-08-19T01:06:05;19.70;83.70
12229;DHT22;6177;52.402;9.800;2022-08-19T01:08:50;19.70;83.90
12229;DHT22;6177;52.402;9.800;2022-08-19T01:11:38;19.70;84.00
12229;DHT22;6177;52.402;9.800;2022-08-19T01:14:24;19.70;84.10
12229;DHT22;6177;52.402;9.800;2022-08-19T01:17:10;19.60;84.30
12229;DHT22;6177;52.402;9.800;2022-08-19T01:19:55;19.50;84.50
12229;DHT22;6177;52.402;9.800;2022-08-19T01:22:44;19.50;84.70
12229;DHT22;6177;52.402;9.800;2022-08-19T01:25:35;19.40;85.00
12229;DHT22;6177;52.402;9.800;2022-08-19T01:28:26;19.40;85.20
12229;DHT22;6177;52.402;9.800;2022-08-19T01:31:14;19.40;85.30
12229;DHT22;6177;52.402;9.800;2022-08-19T01:34:00;19.40;85.40
12229;DHT22;6177;52.402;9.800;2022-08-19T01:36:47;19.40;85.40
12229;DHT22;6177;52.402;9.800;2022-08-19T01:39:33;19.40;85.50
12229;DHT22;6177;52.402;9.800;2022-08-19T01:42:18;19.50;85.30
12229;DHT22;6177;52.402;9.800;2022-08-19T01:45:05;19.40;85.40
12229;DHT22;6177;52.402;9.800;2022-08-19T01:47:51;19.50;85.40
12229;DHT22;6177;52.402;9.800;2022-08-19T01:50:35;19.50;85.20
12229;DHT22;6177;52.402;9.800;2022-08-19T01:53:20;19.50;85.00
12229;DHT22;6177;52.402;9.800;2022-08-19T01:56:05;19.60;84.90
12229;DHT22;6177;52.402;9.800;2022-08-19T01:59:00;19.50;84.90
12229;DHT22;6177;52.402;9.800;2022-08-19T02:01:45;19.50;85.20
12229;DHT22;6177;52.402;9.800;2022-08-19T02:04:29;19.30;85.60
12229;DHT22;6177;52.402;9.800;2022-08-19T02:07:14;19.30;85.90
12229;DHT22;6177;52.402;9.800;2022-08-19T02:10:02;19.30;86.20
12229;DHT22;6177;52.402;9.800;2022-08-19T02:12:48;19.40;85.90
12229;DHT22;6177;52.402;9.800;2022-08-19T02:15:36;19.30;85.90
12229;DHT22;6177;52.402;9.800;2022-08-19T02:18:20;19.30;85.90
12229;DHT22;6177;52.402;9.800;2022-08-19T02:21:05;19.40;85.80
12229;DHT22;6177;52.402;9.800;2022-08-19T02:23:50;19.30;86.00
12229;DHT22;6177;52.402;9.800;2022-08-19T02:26:35;19.30;86.10
12229;DHT22;6177;52.402;9.800;2022-08-19T02:29:20;19.30;86.10
12229;DHT22;6177;52.402;9.800;2022-08-19T02:32:05;19.30;86.30
12229;DHT22;6177;52.402;9.800;2022-08-19T02:34:49;19.30;86.40
12229;DHT22;6177;52.402;9.800;2022-08-19T02:37:34;19.30;86.40
12229;DHT22;6177;52.402;9.800;2022-08-19T02:40:38;19.30;86.60
12229;DHT22;6177;52.402;9.800;2022-08-19T02:43:22;19.30;86.70
12229;DHT22;6177;52.402;9.800;2022-08-19T02:46:24;19.30;86.60
12229;DHT22;6177;52.402;9.800;2022-08-19T02:49:09;19.30;86.30
12229;DHT22;6177;52.402;9.800;2022-08-19T02:51:54;19.30;86.50
12229;DHT22;6177;52.402;9.800;2022-08-19T02:54:39;19.30;86.30
12229;DHT22;6177;52.402;9.800;2022-08-19T02:57:24;19.30;86.20
12229;DHT22;6177;52.402;9.800;2022-08-19T03:00:09;19.40;86.10
12229;DHT22;6177;52.402;9.800;2022-08-19T03:02:57;19.30;86.10
12229;DHT22;6177;52.402;9.800;2022-08-19T03:05:42;19.30;86.10
12229;DHT22;6177;52.402;9.800;2022-08-19T03:08:26;19.30;86.10
12229;DHT22;6177;52.402;9.800;2022-08-19T03:11:37;19.30;85.70
12229;DHT22;6177;52.402;9.800;2022-08-19T03:14:22;19.30;85.60
12229;DHT22;6177;52.402;9.800;2022-08-19T03:17:07;19.30;85.90
12229;DHT22;6177;52.402;9.800;2022-08-19T03:19:52;19.30;86.00
12229;DHT22;6177;52.402;9.800;2022-08-19T03:22:36;19.30;86.00
12229;DHT22;6177;52.402;9.800;2022-08-19T03:25:21;19.30;85.90
12229;DHT22;6177;52.402;9.800;2022-08-19T03:28:06;19.20;85.90
12229;DHT22;6177;52.402;9.800;2022-08-19T03:31:06;19.30;86.10
12229;DHT22;6177;52.402;9.800;2022-08-19T03:33:51;19.30;85.50
12229;DHT22;6177;52.402;9.800;2022-08-19T03:36:36;19.20;85.80
12229;DHT22;6177;52.402;9.800;2022-08-19T03:39:22;19.10;86.10
12229;DHT22;6177;52.402;9.800;2022-08-19T03:42:07;19.10;86.00
12229;DHT22;6177;52.402;9.800;2022-08-19T03:44:52;19.10;86.20
12229;DHT22;6177;52.402;9.800;2022-08-19T03:47:39;19.00;86.30
12229;DHT22;6177;52.402;9.800;2022-08-19T03:50:24;18.90;86.40
12229;DHT22;6177;52.402;9.800;2022-08-19T03:53:08;18.90;86.80
12229;DHT22;6177;52.402;9.800;2022-08-19T03:55:54;18.80;87.00
12229;DHT22;6177;52.402;9.800;2022-08-19T03:58:39;18.80;87.10
12229;DHT22;6177;52.402;9.800;2022-08-19T04:01:27;18.80;87.20
12229;DHT22;6177;52.402;9.800;2022-08-19T04:04:12;18.70;87.50
12229;DHT22;6177;52.402;9.800;2022-08-19T04:06:58;18.70;87.70
12229;DHT22;6177;52.402;9.800;2022-08-19T04:09:42;18.70;87.90
12229;DHT22;6177;52.402;9.800;2022-08-19T04:12:27;18.60;88.10
12229;DHT22;6177;52.402;9.800;2022-08-19T04:15:12;18.60;88.30
12229;DHT22;6177;52.402;9.800;2022-08-19T04:17:56;18.60;88.30
12229;DHT22;6177;52.402;9.800;2022-08-19T04:20:46;18.60;88.50
12229;DHT22;6177;52.402;9.800;2022-08-19T04:23:32;18.60;88.40
12229;DHT22;6177;52.402;9.800;2022-08-19T04:26:19;18.50;88.40
12229;DHT22;6177;52.402;9.800;2022-08-19T04:29:08;18.50;88.70
12229;DHT22;6177;52.402;9.800;2022-08-19T04:31:54;18.50;88.80
12229;DHT22;6177;52.402;9.800;2022-08-19T04:34:39;18.50;88.80
12229;DHT22;6177;52.402;9.800;2022-08-19T04:37:25;18.50;88.80
12229;DHT22;6177;52.402;9.800;2022-08-19T04:40:10;18.50;88.60
12229;DHT22;6177;52.402;9.800;2022-08-19T04:43:13;18.50;88.70
12229;DHT22;6177;52.402;9.800;2022-08-19T04:46:05;18.50;88.60
12229;DHT22;6177;52.402;9.800;2022-08-19T04:48:50;18.50;88.40
12229;DHT22;6177;52.402;9.800;2022-08-19T04:51:35;18.50;88.20
12229;DHT22;6177;52.402;9.800;2022-08-19T04:54:23;18.50;88.00
12229;DHT22;6177;52.402;9.800;2022-08-19T04:57:09;18.50;88.10
12229;DHT22;6177;52.402;9.800;2022-08-19T04:59:55;18.50;88.00
12229;DHT22;6177;52.402;9.800;2022-08-19T05:02:40;18.60;87.90
12229;DHT22;6177;52.402;9.800;2022-08-19T05:05:24;18.50;87.80
12229;DHT22;6177;52.402;9.800;2022-08-19T05:08:10;18.50;87.80
12229;DHT22;6177;52.402;9.800;2022-08-19T05:10:54;18.60;87.50
12229;DHT22;6177;52.402;9.800;2022-08-19T05:13:39;18.60;87.40
12229;DHT22;6177;52.402;9.800;2022-08-19T05:16:26;18.60;87.30
12229;DHT22;6177;52.402;9.800;2022-08-19T05:19:10;18.70;87.00
12229;DHT22;6177;52.402;9.800;2022-08-19T05:22:13;18.70;86.80
12229;DHT22;6177;52.402;9.800;2022-08-19T05:25:20;18.70;86.50
12229;DHT22;6177;52.402;9.800;2022-08-19T05:28:05;18.80;86.20
12229;DHT22;6177;52.402;9.800;2022-08-19T05:30:49;18.80;85.80
12229;DHT22;6177;52.402;9.800;2022-08-19T05:33:35;18.90;85.40
12229;DHT22;6177;52.402;9.800;2022-08-19T05:36:19;18.80;85.50
12229;DHT22;6177;52.402;9.800;2022-08-19T05:39:05;18.80;85.30
12229;DHT22;6177;52.402;9.800;2022-08-19T05:41:54;18.80;85.40
12229;DHT22;6177;52.402;9.800;2022-08-19T05:44:43;18.70;85.60
12229;DHT22;6177;52.402;9.800;2022-08-19T05:47:33;18.70;85.60
12229;DHT22;6177;52.402;9.800;2022-08-19T05:50:18;18.70;85.70
12229;DHT22;6177;52.402;9.800;2022-08-19T05:53:03;18.70;85.80
12229;DHT22;6177;52.402;9.800;2022-08-19T05:55:47;18.70;85.60
12229;DHT22;6177;52.402;9.800;2022-08-19T05:58:35;18.70;85.30
12229;DHT22;6177;52.402;9.800;2022-08-19T06:01:20;18.80;84.90
12229;DHT22;6177;52.402;9.800;2022-08-19T06:04:05;18.80;84.80
12229;DHT22;6177;52.402;9.800;2022-08-19T06:06:51;18.80;84.70
12229;DHT22;6177;52.402;9.800;2022-08-19T06:09:35;18.90;84.30
12229;DHT22;6177;52.402;9.800;2022-08-19T06:12:21;18.90;84.20
12229;DHT22;6177;52.402;9.800;2022-08-19T06:15:17;18.90;83.70
12229;DHT22;6177;52.402;9.800;2022-08-19T06:18:01;18.90;83.80
12229;DHT22;6177;52.402;9.800;2022-08-19T06:20:46;18.90;83.50
12229;DHT22;6177;52.402;9.800;2022-08-19T06:23:31;19.00;83.20
12229;DHT22;6177;52.402;9.800;2022-08-19T06:26:17;19.00;83.20
12229;DHT22;6177;52.402;9.800;2022-08-19T06:29:04;19.00;82.80
12229;DHT22;6177;52.402;9.800;2022-08-19T06:31:53;19.10;82.80
12229;DHT22;6177;52.402;9.800;2022-08-19T06:34:38;19.20;82.80
12229;DHT22;6177;52.402;9.800;2022-08-19T06:37:23;19.30;82.00
12229;DHT22;6177;52.402;9.800;2022-08-19T06:40:08;19.40;81.80
12229;DHT22;6177;52.402;9.800;2022-08-19T06:42:55;19.40;82.00
12229;DHT22;6177;52.402;9.800;2022-08-19T06:45:41;19.50;81.80
12229;DHT22;6177;52.402;9.800;2022-08-19T06:48:26;19.70;81.20
12229;DHT22;6177;52.402;9.800;2022-08-19T06:51:16;19.80;80.60
12229;DHT22;6177;52.402;9.800;2022-08-19T06:54:03;19.90;80.30
12229;DHT22;6177;52.402;9.800;2022-08-19T06:56:48;19.90;80.00
12229;DHT22;6177;52.402;9.800;2022-08-19T06:59:33;20.00;79.60
12229;DHT22;6177;52.402;9.800;2022-08-19T07:02:18;20.10;79.40
12229;DHT22;6177;52.402;9.800;2022-08-19T07:05:03;20.20;79.00
12229;DHT22;6177;52.402;9.800;2022-08-19T07:07:48;20.30;78.60
12229;DHT22;6177;52.402;9.800;2022-08-19T07:13:59;20.40;78.40
12229;DHT22;6177;52.402;9.800;2022-08-19T07:16:48;20.40;78.10
12229;DHT22;6177;52.402;9.800;2022-08-19T07:19:52;20.40;77.70
12229;DHT22;6177;52.402;9.800;2022-08-19T07:26:20;20.60;76.60
12229;DHT22;6177;52.402;9.800;2022-08-19T07:29:06;20.60;76.50
12229;DHT22;6177;52.402;9.800;2022-08-19T07:31:50;20.60;76.50
12229;DHT22;6177;52.402;9.800;2022-08-19T07:34:35;20.60;76.20
12229;DHT22;6177;52.402;9.800;2022-08-19T07:37:22;20.60;76.40
12229;DHT22;6177;52.402;9.800;2022-08-19T07:40:07;20.80;76.10
12229;DHT22;6177;52.402;9.800;2022-08-19T07:42:52;20.90;76.00
12229;DHT22;6177;52.402;9.800;2022-08-19T07:45:37;21.00;75.90
12229;DHT22;6177;52.402;9.800;2022-08-19T07:48:27;21.20;75.20
12229;DHT22;6177;52.402;9.800;2022-08-19T07:51:12;21.30;74.60
12229;DHT22;6177;52.402;9.800;2022-08-19T07:53:56;21.30;74.50
12229;DHT22;6177;52.402;9.800;2022-08-19T07:56:41;21.30;74.50
12229;DHT22;6177;52.402;9.800;2022-08-19T07:59:26;21.40;74.40
12229;DHT22;6177;52.402;9.800;2022-08-19T08:02:12;21.60;73.40
12229;DHT22;6177;52.402;9.800;2022-08-19T08:04:57;21.60;73.10
12229;DHT22;6177;52.402;9.800;2022-08-19T08:08:02;21.60;72.70
12229;DHT22;6177;52.402;9.800;2022-08-19T08:11:05;21.70;73.30
12229;DHT22;6177;52.402;9.800;2022-08-19T08:13:50;21.80;72.50
12229;DHT22;6177;52.402;9.800;2022-08-19T08:16:39;22.00;71.80
12229;DHT22;6177;52.402;9.800;2022-08-19T08:19:24;22.30;71.20
12229;DHT22;6177;52.402;9.800;2022-08-19T08:22:11;22.40;69.60
12229;DHT22;6177;52.402;9.800;2022-08-19T08:25:21;22.30;69.60
12229;DHT22;6177;52.402;9.800;2022-08-19T08:28:06;22.40;69.60
12229;DHT22;6177;52.402;9.800;2022-08-19T08:30:53;22.50;68.60
12229;DHT22;6177;52.402;9.800;2022-08-19T08:33:38;22.50;66.90
12229;DHT22;6177;52.402;9.800;2022-08-19T08:36:22;22.40;66.90
12229;DHT22;6177;52.402;9.800;2022-08-19T08:39:14;22.40;67.10
12229;DHT22;6177;52.402;9.800;2022-08-19T08:45:14;22.60;67.20
12229;DHT22;6177;52.402;9.800;2022-08-19T08:48:07;22.70;66.50
12229;DHT22;6177;52.402;9.800;2022-08-19T08:50:56;22.80;66.50
12229;DHT22;6177;52.402;9.800;2022-08-19T08:53:42;22.90;66.80
12229;DHT22;6177;52.402;9.800;2022-08-19T08:56:29;23.00;66.50
12229;DHT22;6177;52.402;9.800;2022-08-19T09:02:09;23.20;66.00
12229;DHT22;6177;52.402;9.800;2022-08-19T09:04:54;23.40;65.60
12229;DHT22;6177;52.402;9.800;2022-08-19T09:10:39;24.10;64.60
12229;DHT22;6177;52.402;9.800;2022-08-19T09:16:25;24.30;63.50
12229;DHT22;6177;52.402;9.800;2022-08-19T09:19:11;24.40;63.30
12229;DHT22;6177;52.402;9.800;2022-08-19T09:21:56;24.40;63.50
12229;DHT22;6177;52.402;9.800;2022-08-19T09:24:40;24.40;63.30
12229;DHT22;6177;52.402;9.800;2022-08-19T09:27:27;24.40;63.30
12229;DHT22;6177;52.402;9.800;2022-08-19T09:30:22;24.30;63.00
12229;DHT22;6177;52.402;9.800;2022-08-19T09:33:08;24.30;62.30
12229;DHT22;6177;52.402;9.800;2022-08-19T09:36:03;24.20;62.00
12229;DHT22;6177;52.402;9.800;2022-08-19T09:38:48;24.20;62.10
12229;DHT22;6177;52.402;9.800;2022-08-19T09:41:32;24.00;62.40
12229;DHT22;6177;52.402;9.800;2022-08-19T09:44:19;24.10;62.50
12229;DHT22;6177;52.402;9.800;2022-08-19T09:47:04;24.10;62.40
12229;DHT22;6177;52.402;9.800;2022-08-19T09:49:49;24.10;62.30
12229;DHT22;6177;52.402;9.800;2022-08-19T09:52:35;24.10;62.10
12229;DHT22;6177;52.402;9.800;2022-08-19T09:55:20;24.00;62.00
12229;DHT22;6177;52.402;9.800;2022-08-19T09:58:05;24.10;62.10
12229;DHT22;6177;52.402;9.800;2022-08-19T10:00:50;24.30;62.00
12229;DHT22;6177;52.402;9.800;2022-08-19T10:03:35;24.30;61.70
12229;DHT22;6177;52.402;9.800;2022-08-19T10:06:22;24.30;61.70
12229;DHT22;6177;52.402;9.800;2022-08-19T10:09:10;24.40;61.60
12229;DHT22;6177;52.402;9.800;2022-08-19T10:11:55;24.30;61.70
12229;DHT22;6177;52.402;9.800;2022-08-19T10:14:41;24.30;61.60
12229;DHT22;6177;52.402;9.800;2022-08-19T10:17:26;24.30;61.50
12229;DHT22;6177;52.402;9.800;2022-08-19T10:20:11;24.40;61.70
12229;DHT22;6177;52.402;9.800;2022-08-19T10:22:55;24.40;61.60
12229;DHT22;6177;52.402;9.800;2022-08-19T10:25:40;24.50;61.00
12229;DHT22;6177;52.402;9.800;2022-08-19T10:28:24;24.50;60.10
12229;DHT22;6177;52.402;9.800;2022-08-19T10:31:12;24.50;58.30
12229;DHT22;6177;52.402;9.800;2022-08-19T10:33:59;24.40;54.80
12229;DHT22;6177;52.402;9.800;2022-08-19T10:36:45;24.40;55.00
12229;DHT22;6177;52.402;9.800;2022-08-19T10:39:30;24.30;55.00
12229;DHT22;6177;52.402;9.800;2022-08-19T10:42:15;24.20;55.60
12229;DHT22;6177;52.402;9.800;2022-08-19T10:45:01;24.20;55.80
12229;DHT22;6177;52.402;9.800;2022-08-19T10:47:46;24.10;54.90
12229;DHT22;6177;52.402;9.800;2022-08-19T10:50:30;24.10;55.40
12229;DHT22;6177;52.402;9.800;2022-08-19T10:53:33;24.10;55.50
12229;DHT22;6177;52.402;9.800;2022-08-19T10:56:19;24.30;55.30
12229;DHT22;6177;52.402;9.800;2022-08-19T10:59:24;24.50;53.60
12229;DHT22;6177;52.402;9.800;2022-08-19T11:02:11;24.40;53.70
12229;DHT22;6177;52.402;9.800;2022-08-19T11:04:57;24.40;53.40
12229;DHT22;6177;52.402;9.800;2022-08-19T11:07:42;24.40;53.70
12229;DHT22;6177;52.402;9.800;2022-08-19T11:10:28;24.50;52.60
12229;DHT22;6177;52.402;9.800;2022-08-19T11:13:13;24.30;52.40
12229;DHT22;6177;52.402;9.800;2022-08-19T11:15:59;24.20;53.20
12229;DHT22;6177;52.402;9.800;2022-08-19T11:18:48;24.30;52.90
12229;DHT22;6177;52.402;9.800;2022-08-19T11:21:37;24.30;53.20
12229;DHT22;6177;52.402;9.800;2022-08-19T11:24:25;24.30;53.30
12229;DHT22;6177;52.402;9.800;2022-08-19T11:27:10;24.50;52.30
12229;DHT22;6177;52.402;9.800;2022-08-19T11:29:55;24.40;51.80
12229;DHT22;6177;52.402;9.800;2022-08-19T11:32:41;24.50;52.50
12229;DHT22;6177;52.402;9.800;2022-08-19T11:35:25;24.60;53.40
12229;DHT22;6177;52.402;9.800;2022-08-19T11:38:10;24.70;53.30
12229;DHT22;6177;52.402;9.800;2022-08-19T11:41:00;24.80;52.80
12229;DHT22;6177;52.402;9.800;2022-08-19T11:43:46;24.90;51.90
12229;DHT22;6177;52.402;9.800;2022-08-19T11:46:30;25.00;51.00
12229;DHT22;6177;52.402;9.800;2022-08-19T11:49:17;25.10;50.40
12229;DHT22;6177;52.402;9.800;2022-08-19T11:52:03;25.10;50.60
12229;DHT22;6177;52.402;9.800;2022-08-19T11:54:48;25.20;50.60
12229;DHT22;6177;52.402;9.800;2022-08-19T11:57:33;25.20;50.80
12229;DHT22;6177;52.402;9.800;2022-08-19T12:00:17;25.40;50.40
12229;DHT22;6177;52.402;9.800;2022-08-19T12:03:03;25.50;50.50
12229;DHT22;6177;52.402;9.800;2022-08-19T12:05:47;25.60;50.50
12229;DHT22;6177;52.402;9.800;2022-08-19T12:08:33;25.70;50.10
12229;DHT22;6177;52.402;9.800;2022-08-19T12:11:18;26.00;49.70
12229;DHT22;6177;52.402;9.800;2022-08-19T12:14:02;26.20;49.20
12229;DHT22;6177;52.402;9.800;2022-08-19T12:16:47;26.90;48.10
12229;DHT22;6177;52.402;9.800;2022-08-19T12:19:31;27.50;46.20
12229;DHT22;6177;52.402;9.800;2022-08-19T12:22:17;28.10;44.10
12229;DHT22;6177;52.402;9.800;2022-08-19T12:25:03;28.70;43.60
12229;DHT22;6177;52.402;9.800;2022-08-19T12:27:49;29.10;42.00
12229;DHT22;6177;52.402;9.800;2022-08-19T12:30:37;29.50;41.70
12229;DHT22;6177;52.402;9.800;2022-08-19T12:33:22;30.00;41.40
12229;DHT22;6177;52.402;9.800;2022-08-19T12:36:11;30.40;40.20
12229;DHT22;6177;52.402;9.800;2022-08-19T12:38:58;30.50;39.20
12229;DHT22;6177;52.402;9.800;2022-08-19T12:41:43;30.80;38.30
12229;DHT22;6177;52.402;9.800;2022-08-19T12:44:28;31.20;37.40
12229;DHT22;6177;52.402;9.800;2022-08-19T12:47:14;31.50;37.70
12229;DHT22;6177;52.402;9.800;2022-08-19T12:49:58;31.30;36.80
12229;DHT22;6177;52.402;9.800;2022-08-19T12:52:43;31.30;36.50
12229;DHT22;6177;52.402;9.800;2022-08-19T12:55:28;31.60;36.40
12229;DHT22;6177;52.402;9.800;2022-08-19T12:58:13;31.70;36.30
12229;DHT22;6177;52.402;9.800;2022-08-19T13:00:58;32.10;36.40
12229;DHT22;6177;52.402;9.800;2022-08-19T13:03:45;32.70;35.80
12229;DHT22;6177;52.402;9.800;2022-08-19T13:06:29;33.00;35.10
12229;DHT22;6177;52.402;9.800;2022-08-19T13:09:14;33.00;35.00
12229;DHT22;6177;52.402;9.800;2022-08-19T13:11:59;33.20;34.50
12229;DHT22;6177;52.402;9.800;2022-08-19T13:14:46;33.00;34.50
12229;DHT22;6177;52.402;9.800;2022-08-19T13:17:35;33.30;34.50
12229;DHT22;6177;52.402;9.800;2022-08-19T13:20:20;34.00;34.30
12229;DHT22;6177;52.402;9.800;2022-08-19T13:23:07;34.50;33.70
12229;DHT22;6177;52.402;9.800;2022-08-19T13:26:02;34.80;32.20
12229;DHT22;6177;52.402;9.800;2022-08-19T13:28:47;34.80;31.90
12229;DHT22;6177;52.402;9.800;2022-08-19T13:31:50;34.50;31.20
12229;DHT22;6177;52.402;9.800;2022-08-19T13:34:54;34.60;31.60
12229;DHT22;6177;52.402;9.800;2022-08-19T13:37:38;34.90;31.60
12229;DHT22;6177;52.402;9.800;2022-08-19T13:40:25;34.70;31.40
12229;DHT22;6177;52.402;9.800;2022-08-19T13:43:11;35.10;31.10
12229;DHT22;6177;52.402;9.800;2022-08-19T13:45:55;34.70;30.10
12229;DHT22;6177;52.402;9.800;2022-08-19T13:48:40;34.70;30.30
12229;DHT22;6177;52.402;9.800;2022-08-19T13:51:25;34.90;30.60
12229;DHT22;6177;52.402;9.800;2022-08-19T13:54:10;35.50;30.00
12229;DHT22;6177;52.402;9.800;2022-08-19T13:56:54;35.50;29.50
12229;DHT22;6177;52.402;9.800;2022-08-19T13:59:38;35.20;29.10
12229;DHT22;6177;52.402;9.800;2022-08-19T14:10:26;36.10;28.80
12229;DHT22;6177;52.402;9.800;2022-08-19T14:13:51;35.60;29.10
12229;DHT22;6177;52.402;9.800;2022-08-19T14:16:47;36.00;28.90
12229;DHT22;6177;52.402;9.800;2022-08-19T14:19:32;36.60;28.70
12229;DHT22;6177;52.402;9.800;2022-08-19T14:22:17;36.40;27.70
12229;DHT22;6177;52.402;9.800;2022-08-19T14:25:07;35.80;27.90
12229;DHT22;6177;52.402;9.800;2022-08-19T14:27:52;35.70;28.30
12229;DHT22;6177;52.402;9.800;2022-08-19T14:30:36;35.70;28.50
12229;DHT22;6177;52.402;9.800;2022-08-19T14:33:21;36.20;28.50
12229;DHT22;6177;52.402;9.800;2022-08-19T14:36:06;36.90;28.30
12229;DHT22;6177;52.402;9.800;2022-08-19T14:38:50;37.40;28.10
12229;DHT22;6177;52.402;9.800;2022-08-19T14:41:35;37.70;27.30
12229;DHT22;6177;52.402;9.800;2022-08-19T14:44:19;37.30;26.40
12229;DHT22;6177;52.402;9.800;2022-08-19T14:47:03;37.00;26.60
12229;DHT22;6177;52.402;9.800;2022-08-19T14:49:48;37.00;26.60
12229;DHT22;6177;52.402;9.800;2022-08-19T14:52:32;37.20;26.50
12229;DHT22;6177;52.402;9.800;2022-08-19T14:55:17;37.10;26.70
12229;DHT22;6177;52.402;9.800;2022-08-19T14:58:01;37.70;26.80
12229;DHT22;6177;52.402;9.800;2022-08-19T15:00:45;38.20;26.70
12229;DHT22;6177;52.402;9.800;2022-08-19T15:03:30;38.80;26.50
12229;DHT22;6177;52.402;9.800;2022-08-19T15:06:15;39.00;26.00
12229;DHT22;6177;52.402;9.800;2022-08-19T15:09:00;39.50;26.00
12229;DHT22;6177;52.402;9.800;2022-08-19T15:11:44;40.00;25.90
12229;DHT22;6177;52.402;9.800;2022-08-19T15:14:29;40.00;25.40
12229;DHT22;6177;52.402;9.800;2022-08-19T15:17:18;40.10;25.20
12229;DHT22;6177;52.402;9.800;2022-08-19T15:20:03;39.80;25.10
12229;DHT22;6177;52.402;9.800;2022-08-19T15:22:48;39.80;25.10
12229;DHT22;6177;52.402;9.800;2022-08-19T15:25:33;39.80;25.10
12229;DHT22;6177;52.402;9.800;2022-08-19T15:28:18;40.00;25.20
12229;DHT22;6177;52.402;9.800;2022-08-19T15:31:02;40.10;25.20
12229;DHT22;6177;52.402;9.800;2022-08-19T15:33:47;40.20;24.80
12229;DHT22;6177;52.402;9.800;2022-08-19T15:36:32;39.10;24.80
12229;DHT22;6177;52.402;9.800;2022-08-19T15:39:17;38.90;25.20
12229;DHT22;6177;52.402;9.800;2022-08-19T15:42:07;39.30;25.10
12229;DHT22;6177;52.402;9.800;2022-08-19T15:44:52;39.80;25.20
12229;DHT22;6177;52.402;9.800;2022-08-19T15:47:37;39.90;24.90
12229;DHT22;6177;52.402;9.800;2022-08-19T15:50:22;39.90;24.60
12229;DHT22;6177;52.402;9.800;2022-08-19T15:53:08;39.70;24.60
12229;DHT22;6177;52.402;9.800;2022-08-19T15:55:53;39.80;24.80
12229;DHT22;6177;52.402;9.800;2022-08-19T15:58:37;40.30;24.90
12229;DHT22;6177;52.402;9.800;2022-08-19T16:01:40;40.40;24.70
12229;DHT22;6177;52.402;9.800;2022-08-19T16:05:05;40.10;24.60
12229;DHT22;6177;52.402;9.800;2022-08-19T16:08:08;39.20;24.50
12229;DHT22;6177;52.402;9.800;2022-08-19T16:10:53;38.20;25.00
12229;DHT22;6177;52.402;9.800;2022-08-19T16:13:38;37.30;25.20
12229;DHT22;6177;52.402;9.800;2022-08-19T16:16:24;36.30;25.80
12229;DHT22;6177;52.402;9.800;2022-08-19T16:19:12;35.60;26.40
12229;DHT22;6177;52.402;9.800;2022-08-19T16:22:00;35.10;26.60
12229;DHT22;6177;52.402;9.800;2022-08-19T16:24:44;34.60;26.90
12229;DHT22;6177;52.402;9.800;2022-08-19T16:27:28;34.40;27.00
12229;DHT22;6177;52.402;9.800;2022-08-19T16:30:13;34.00;27.20
12229;DHT22;6177;52.402;9.800;2022-08-19T16:32:57;33.80;27.40
12229;DHT22;6177;52.402;9.800;2022-08-19T16:35:42;33.50;27.70
12229;DHT22;6177;52.402;9.800;2022-08-19T16:38:26;33.40;28.00
12229;DHT22;6177;52.402;9.800;2022-08-19T16:41:11;33.50;28.10
12229;DHT22;6177;52.402;9.800;2022-08-19T16:43:57;33.40;28.00
12229;DHT22;6177;52.402;9.800;2022-08-19T16:46:43;33.00;28.00
12229;DHT22;6177;52.402;9.800;2022-08-19T16:49:30;32.70;28.50
12229;DHT22;6177;52.402;9.800;2022-08-19T16:52:15;32.50;28.70
12229;DHT22;6177;52.402;9.800;2022-08-19T16:54:59;32.30;28.80
12229;DHT22;6177;52.402;9.800;2022-08-19T16:57:44;32.10;28.80
12229;DHT22;6177;52.402;9.800;2022-08-19T17:00:28;31.90;29.00
12229;DHT22;6177;52.402;9.800;2022-08-19T17:03:13;31.70;29.00
12229;DHT22;6177;52.402;9.800;2022-08-19T17:05:58;31.60;29.10
12229;DHT22;6177;52.402;9.800;2022-08-19T17:08:48;31.40;29.20
12229;DHT22;6177;52.402;9.800;2022-08-19T17:11:33;31.10;29.50
12229;DHT22;6177;52.402;9.800;2022-08-19T17:14:17;30.80;29.60
12229;DHT22;6177;52.402;9.800;2022-08-19T17:17:05;30.50;29.90
12229;DHT22;6177;52.402;9.800;2022-08-19T17:19:49;30.30;30.00
12229;DHT22;6177;52.402;9.800;2022-08-19T17:22:34;30.10;30.10
12229;DHT22;6177;52.402;9.800;2022-08-19T17:25:20;29.90;30.30
12229;DHT22;6177;52.402;9.800;2022-08-19T17:28:10;29.70;30.60
12229;DHT22;6177;52.402;9.800;2022-08-19T17:30:55;29.60;31.10
12229;DHT22;6177;52.402;9.800;2022-08-19T17:33:40;29.50;31.40
12229;DHT22;6177;52.402;9.800;2022-08-19T17:36:29;29.40;31.40
12229;DHT22;6177;52.402;9.800;2022-08-19T17:46:43;28.80;32.00
12229;DHT22;6177;52.402;9.800;2022-08-19T17:49:29;28.60;32.40
12229;DHT22;6177;52.402;9.800;2022-08-19T17:52:14;28.50;32.50
12229;DHT22;6177;52.402;9.800;2022-08-19T17:54:59;28.30;32.70
12229;DHT22;6177;52.402;9.800;2022-08-19T17:57:44;28.10;32.90
12229;DHT22;6177;52.402;9.800;2022-08-19T18:00:29;28.00;33.30
12229;DHT22;6177;52.402;9.800;2022-08-19T18:03:14;27.90;33.60
12229;DHT22;6177;52.402;9.800;2022-08-19T18:05:58;27.70;33.60
12229;DHT22;6177;52.402;9.800;2022-08-19T18:08:43;27.60;33.70
12229;DHT22;6177;52.402;9.800;2022-08-19T18:11:32;27.50;33.90
12229;DHT22;6177;52.402;9.800;2022-08-19T18:14:17;27.30;34.10
12229;DHT22;6177;52.402;9.800;2022-08-19T18:17:02;27.30;34.30
12229;DHT22;6177;52.402;9.800;2022-08-19T18:19:52;27.20;34.40
12229;DHT22;6177;52.402;9.800;2022-08-19T18:22:37;27.10;34.50
12229;DHT22;6177;52.402;9.800;2022-08-19T18:25:22;26.90;34.70